Time;durP1;ratioP1;P1;durP2;ratioP2;P2;SDS_P1;SDS_P2;PMS_P1;PMS_P2;Temp;Humidity;BMP_temperature;BMP_pressure;BME280_temperature;BME280_humidity;BME280_pressure;Samples;Min_cycle;Max_cycle;Signal;HPM_P1;HPM_P2
2022/04/09 00:01:26;;;;;;;40.33;24.65;;;;;;;6.96;93.11;95857.63;1741444;81;20895;-56
2022/04/09 00:03:52;;;;;;;40.40;23.52;;;;;;;6.99;92.75;95854.86;1758843;80;21981;-56
2022/04/09 00:06:18;;;;;;;43.50;29.52;;;;;;;7.00;93.41;95865.31;1742922;81;20882;-56
2022/04/09 00:08:44;;;;;;;51.65;34.50;;;;;;;7.00;94.27;95869.36;1748588;80;20937;-56
2022/04/09 00:11:10;;;;;;;74.05;47.65;;;;;;;7.04;93.03;95848.80;1741268;81;21002;-56
2022/04/09 00:13:36;;;;;;;68.97;46.00;;;;;;;7.08;93.47;95835.50;1743668;81;20942;-57
2022/04/09 00:16:03;;;;;;;78.83;54.18;;;;;;;7.11;93.47;95842.98;1742825;81;21148;-56
2022/04/09 00:18:29;;;;;;;54.15;38.35;;;;;;;7.11;94.82;95842.98;1771055;80;20982;-55
2022/04/09 00:20:55;;;;;;;36.93;27.20;;;;;;;7.08;96.23;95834.95;1781757;80;20973;-57
2022/04/09 00:23:23;;;;;;;30.08;20.40;;;;;;;7.10;94.67;95829.83;1744845;81;21017;-57
2022/04/09 00:25:51;;;;;;;24.75;17.10;;;;;;;7.13;93.32;95827.30;1752543;81;21018;-57
2022/04/09 00:28:18;;;;;;;17.77;13.05;;;;;;;7.14;93.55;95836.17;1745033;80;20970;-56
2022/04/09 00:30:44;;;;;;;22.42;14.05;;;;;;;7.14;93.59;95838.86;1741635;80;20962;-57
2022/04/09 00:33:10;;;;;;;20.75;13.25;;;;;;;7.12;92.90;95855.34;1743407;81;20894;-57
2022/04/09 00:35:36;;;;;;;19.48;13.22;;;;;;;7.11;92.87;95865.08;1741663;81;20919;-57
2022/04/09 00:38:02;;;;;;;19.80;13.10;;;;;;;7.09;92.39;95870.75;1778209;80;22325;-56
2022/04/09 00:40:28;;;;;;;22.82;14.78;;;;;;;7.06;93.33;95866.78;1789067;80;21377;-56
2022/04/09 00:42:54;;;;;;;23.25;14.43;;;;;;;7.06;92.85;95875.41;1789107;80;20882;-57
2022/04/09 00:45:20;;;;;;;22.93;15.13;;;;;;;7.03;94.35;95877.39;1788806;80;21044;-57
2022/04/09 00:47:46;;;;;;;23.95;15.72;;;;;;;7.04;94.13;95869.00;1789198;80;21008;-57
2022/04/09 00:50:12;;;;;;;22.85;14.53;;;;;;;7.04;93.16;95856.88;1789166;80;21600;-56
2022/04/09 00:52:48;;;;;;;26.50;16.42;;;;;;;7.06;93.45;95834.47;1789271;80;21331;-57
2022/04/09 00:55:14;;;;;;;27.93;17.95;;;;;;;7.05;93.70;95824.80;1751911;80;21001;-57
2022/04/09 00:57:41;;;;;;;21.93;14.35;;;;;;;7.05;93.96;95815.94;1741542;81;21552;-56
2022/04/09 01:00:11;;;;;;;24.72;15.00;;;;;;;7.02;92.61;95802.55;1741271;81;21045;-57
2022/04/09 01:02:39;;;;;;;48.35;30.05;;;;;;;6.94;92.25;95794.42;1741825;81;21005;-57
2022/04/09 01:05:06;;;;;;;43.42;30.00;;;;;;;6.92;92.32;95790.70;1747051;81;21438;-56
2022/04/09 01:07:33;;;;;;;29.10;18.05;;;;;;;6.88;92.26;95791.06;1767220;80;21051;-56
2022/04/09 01:10:00;;;;;;;35.23;22.35;;;;;;;6.87;92.95;95798.91;1741440;81;20998;-56
2022/04/09 01:12:26;;;;;;;28.70;18.87;;;;;;;6.89;92.48;95803.97;1741128;81;21017;-57
2022/04/09 01:14:52;;;;;;;26.07;15.98;;;;;;;6.90;92.17;95805.56;1744800;81;20874;-57
2022/04/09 01:17:18;;;;;;;26.77;16.45;;;;;;;6.85;94.42;95802.46;1742970;81;22007;-57
2022/04/09 01:19:44;;;;;;;27.65;18.30;;;;;;;6.80;95.75;95798.55;1741887;81;21041;-57
2022/04/09 01:22:10;;;;;;;35.95;22.13;;;;;;;6.79;93.51;95808.52;1746351;81;21675;-57
2022/04/09 01:24:36;;;;;;;31.17;19.87;;;;;;;6.76;93.59;95805.11;1757942;80;20873;-56
2022/04/09 01:27:02;;;;;;;28.75;19.73;;;;;;;6.71;96.35;95816.55;1778024;80;20953;-57
2022/04/09 01:29:28;;;;;;;26.52;19.23;;;;;;;6.67;95.14;95815.03;1725052;81;21165;-57
2022/04/09 01:31:54;;;;;;;25.00;17.60;;;;;;;6.66;94.86;95815.31;1771632;80;21013;-56
2022/04/09 01:34:20;;;;;;;24.72;15.75;;;;;;;6.63;93.97;95803.83;1788902;80;20910;-57
2022/04/09 01:36:46;;;;;;;27.07;14.90;;;;;;;6.64;93.33;95813.49;1789026;80;20932;-56
2022/04/09 01:39:13;;;;;;;22.32;14.30;;;;;;;6.60;94.17;95805.25;1789036;80;21037;-57
2022/04/09 01:41:38;;;;;;;19.48;13.58;;;;;;;6.57;95.01;95803.16;1788840;80;21120;-57
2022/04/09 01:44:05;;;;;;;30.30;17.98;;;;;;;6.57;93.93;95805.84;1789092;80;20914;-56
2022/04/09 01:46:31;;;;;;;51.85;25.90;;;;;;;6.52;93.27;95814.61;1788799;80;21390;-56
2022/04/09 01:48:57;;;;;;;36.10;25.65;;;;;;;6.45;92.98;95821.77;1776820;80;20999;-57
2022/04/09 01:51:23;;;;;;;33.33;23.38;;;;;;;6.41;93.61;95822.94;1743400;81;20942;-57
2022/04/09 01:53:49;;;;;;;33.90;22.05;;;;;;;6.36;93.55;95825.73;1744868;81;22271;-56
2022/04/09 01:56:15;;;;;;;53.87;28.05;;;;;;;6.34;93.61;95811.02;1745245;81;20867;-57
2022/04/09 01:58:41;;;;;;;49.55;27.45;;;;;;;6.28;93.01;95817.05;1741270;81;20966;-57
2022/04/09 02:01:07;;;;;;;32.80;20.97;;;;;;;6.28;92.89;95827.81;1744143;80;20922;-56
2022/04/09 02:03:34;;;;;;;36.10;21.85;;;;;;;6.31;93.15;95832.57;1750894;81;20879;-57
2022/04/09 02:06:00;;;;;;;26.48;18.57;;;;;;;6.32;93.74;95830.13;1756092;80;22108;-57
2022/04/09 02:08:26;;;;;;;32.08;21.12;;;;;;;6.32;96.15;95819.36;1769520;80;20870;-56
2022/04/09 02:10:52;;;;;;;33.73;20.60;;;;;;;6.30;96.87;95815.40;1741262;81;20954;-57
2022/04/09 02:13:21;;;;;;;36.50;22.58;;;;;;;6.29;94.63;95811.92;1746091;80;20855;-57
2022/04/09 02:15:46;;;;;;;34.15;20.92;;;;;;;6.27;94.19;95807.95;1747284;80;20966;-56
2022/04/09 02:18:12;;;;;;;40.12;22.95;;;;;;;6.28;93.71;95829.16;1789014;80;21420;-57
2022/04/09 02:20:38;;;;;;;31.60;18.55;;;;;;;6.25;95.98;95801.54;1762887;80;20868;-56
2022/04/09 02:23:04;;;;;;;56.33;29.40;;;;;;;6.19;95.65;95808.13;1741522;81;20977;-56
2022/04/09 02:25:30;;;;;;;40.12;24.65;;;;;;;6.17;95.23;95814.37;1741583;80;21340;-56
2022/04/09 02:27:56;;;;;;;35.85;22.42;;;;;;;6.18;94.68;95814.06;1779282;80;21420;-56
2022/04/09 02:30:22;;;;;;;44.40;27.35;;;;;;;6.19;94.56;95818.88;1742661;80;21157;-56
2022/04/09 02:32:51;;;;;;;31.25;19.32;;;;;;;6.16;96.50;95799.34;1786787;80;20981;-56
2022/04/09 02:35:19;;;;;;;28.80;17.80;;;;;;;6.16;94.69;95791.27;1750745;80;21038;-56
2022/04/09 02:37:45;;;;;;;32.20;18.17;;;;;;;6.10;95.07;95791.92;1767696;80;21532;-56
2022/04/09 02:40:12;;;;;;;27.82;17.73;;;;;;;6.09;95.02;95778.80;1741330;81;21401;-57
2022/04/09 02:42:39;;;;;;;26.25;16.50;;;;;;;6.03;96.70;95764.66;1741413;81;21406;-56
2022/04/09 02:45:07;;;;;;;26.12;15.63;;;;;;;5.99;96.84;95774.45;1741274;81;20998;-57
2022/04/09 02:47:33;;;;;;;23.60;17.30;;;;;;;5.97;95.34;95765.08;1741736;81;21061;-56
2022/04/09 02:50:02;;;;;;;25.68;15.90;;;;;;;5.90;97.78;95764.98;1747424;81;20878;-57
2022/04/09 02:52:38;;;;;;;;;;;;;;;5.91;95.83;95771.94;1749507;81;21017;-56
2022/04/09 02:55:06;;;;;;;44.80;22.10;;;;;;;5.88;95.21;95752.34;1734313;82;21998;-57
2022/04/09 02:57:33;;;;;;;42.20;22.27;;;;;;;5.85;95.23;95754.84;1750186;81;21024;-56
2022/04/09 02:59:59;;;;;;;42.60;24.00;;;;;;;5.84;95.88;95739.83;1764223;81;21031;-56
2022/04/09 03:02:24;;;;;;;37.73;21.20;;;;;;;5.88;95.81;95734.86;1758375;81;20865;-56
2022/04/09 03:04:52;;;;;;;30.57;17.73;;;;;;;5.86;98.32;95734.93;1762999;81;20943;-56
2022/04/09 03:07:18;;;;;;;37.98;22.10;;;;;;;5.85;99.23;95738.17;1756549;81;21212;-56
2022/04/09 03:09:44;;;;;;;31.85;20.25;;;;;;;5.87;97.28;95729.80;1752213;81;21021;-56
2022/04/09 03:12:09;;;;;;;33.90;19.48;;;;;;;5.91;98.47;95728.13;1752155;81;20877;-57
2022/04/09 03:14:35;;;;;;;50.80;23.87;;;;;;;5.93;97.22;95703.08;1761341;81;20869;-56
2022/04/09 03:17:01;;;;;;;36.03;21.75;;;;;;;5.94;96.46;95708.70;1758661;81;20858;-56
2022/04/09 03:19:27;;;;;;;35.78;21.87;;;;;;;5.91;96.80;95699.91;1752299;81;21089;-56
2022/04/09 03:21:53;;;;;;;36.35;21.62;;;;;;;5.90;96.69;95691.05;1757799;81;20877;-56
2022/04/09 03:24:19;;;;;;;37.42;21.23;;;;;;;5.90;97.35;95691.58;1752346;81;21555;-56
2022/04/09 03:26:45;;;;;;;36.63;19.95;;;;;;;5.91;98.09;95677.86;1752426;81;20877;-56
2022/04/09 03:29:11;;;;;;;37.28;21.87;;;;;;;5.88;96.24;95687.83;1746614;81;20955;-56
2022/04/09 03:31:37;;;;;;;68.05;35.52;;;;;;;5.88;95.81;95698.58;1737599;81;21479;-56
2022/04/09 03:34:04;;;;;;;46.65;26.95;;;;;;;5.91;96.24;95701.25;1737531;81;20963;-56
2022/04/09 03:36:30;;;;;;;36.90;21.87;;;;;;;5.94;96.00;95699.29;1745275;81;21088;-57
2022/04/09 03:38:56;;;;;;;32.65;20.80;;;;;;;5.96;95.53;95682.84;1758248;81;21016;-56
2022/04/09 03:41:22;;;;;;;29.23;18.00;;;;;;;5.94;96.71;95675.89;1752417;81;21015;-57
2022/04/09 03:43:53;;;;;;;30.12;18.87;;;;;;;5.99;96.82;95683.59;1755409;81;21440;-56
2022/04/09 03:46:16;;;;;;;37.83;20.70;;;;;;;5.96;98.34;95669.41;1756849;81;21437;-56
2022/04/09 03:48:43;;;;;;;49.75;25.70;;;;;;;5.97;97.26;95668.30;1756952;79;20864;-56
2022/04/09 03:51:11;;;;;;;44.42;24.92;;;;;;;5.99;96.47;95664.23;1755065;81;20992;-56
2022/04/09 03:53:37;;;;;;;41.20;23.92;;;;;;;6.00;98.64;95669.05;1761383;81;21505;-57
2022/04/09 03:56:04;;;;;;;41.15;22.02;;;;;;;6.01;98.07;95660.67;1752752;81;21497;-56
2022/04/09 03:58:30;;;;;;;43.40;24.37;;;;;;;6.01;97.43;95663.92;1752095;81;21509;-57
2022/04/09 04:00:56;;;;;;;51.08;27.32;;;;;;;5.94;99.19;95650.35;1750022;81;20868;-57
2022/04/09 04:03:22;;;;;;;96.45;46.33;;;;;;;5.99;97.44;95656.16;1750462;79;21453;-56
2022/04/09 04:05:48;;;;;;;131.32;70.60;;;;;;;5.98;97.11;95647.83;1739681;81;20892;-57
2022/04/09 04:08:14;;;;;;;85.90;52.25;;;;;;;6.00;96.81;95640.83;1752377;81;21282;-56
2022/04/09 04:10:40;;;;;;;60.10;35.80;;;;;;;6.03;96.30;95653.64;1752359;81;20996;-56
2022/04/09 04:13:06;;;;;;;60.17;34.20;;;;;;;6.04;96.35;95648.50;1746813;81;20860;-57
2022/04/09 04:15:33;;;;;;;71.22;38.08;;;;;;;6.02;98.90;95644.78;1738450;81;20964;-56
2022/04/09 04:17:59;;;;;;;59.18;28.85;;;;;;;6.05;96.98;95651.44;1769920;79;21477;-56
2022/04/09 04:20:25;;;;;;;39.42;23.40;;;;;;;6.07;97.07;95637.16;1752313;81;21776;-56
2022/04/09 04:22:51;;;;;;;46.33;24.47;;;;;;;6.01;97.44;95619.56;1750497;81;20884;-57
2022/04/09 04:25:17;;;;;;;66.35;31.52;;;;;;;6.04;96.72;95630.48;1737901;81;20999;-56
2022/04/09 04:27:46;;;;;;;58.60;29.82;;;;;;;6.03;97.37;95630.80;1738821;81;21490;-56
2022/04/09 04:30:13;;;;;;;53.92;30.45;;;;;;;6.06;96.62;95632.30;1762599;81;20984;-56
2022/04/09 04:32:39;;;;;;;45.38;27.75;;;;;;;6.10;96.66;95629.25;1755422;79;21534;-56
2022/04/09 04:35:07;;;;;;;32.17;19.67;;;;;;;6.12;99.18;95633.77;1746736;81;21008;-56
2022/04/09 04:37:40;;;;;;;34.85;20.20;;;;;;;6.15;99.25;95623.76;1746251;79;21441;-56
2022/04/09 04:40:07;;;;;;;38.30;22.02;;;;;;;6.17;98.34;95628.82;1746657;81;21487;-56
2022/04/09 04:42:34;;;;;;;39.73;21.80;;;;;;;6.16;98.78;95636.64;1750048;81;20992;-56
2022/04/09 04:45:00;;;;;;;54.10;28.27;;;;;;;6.16;98.44;95623.20;1752624;81;21142;-56
2022/04/09 04:47:25;;;;;;;52.00;31.40;;;;;;;6.17;97.45;95635.55;1766183;81;20923;-56
2022/04/09 04:49:51;;;;;;;50.90;29.42;;;;;;;6.20;97.49;95631.67;1746881;81;20886;-56
2022/04/09 04:52:17;;;;;;;54.95;32.45;;;;;;;6.19;98.43;95627.40;1741129;81;20967;-56
2022/04/09 04:54:43;;;;;;;66.30;38.02;;;;;;;6.27;98.48;95627.20;1751282;81;21638;-56
2022/04/09 04:57:10;;;;;;;69.25;40.60;;;;;;;6.31;97.67;95639.47;1752432;81;21541;-57
2022/04/09 04:59:35;;;;;;;59.93;38.88;;;;;;;6.34;98.01;95642.34;1751366;79;21460;-56
2022/04/09 05:02:01;;;;;;;73.15;46.02;;;;;;;6.37;97.25;95629.61;1738626;82;20900;-57
2022/04/09 05:04:28;;;;;;;64.27;41.95;;;;;;;6.42;97.83;95625.45;1750164;81;20909;-56
2022/04/09 05:06:54;;;;;;;60.08;40.30;;;;;;;6.48;98.67;95619.36;1752546;81;20981;-56
2022/04/09 05:09:20;;;;;;;47.65;31.15;;;;;;;6.56;99.38;95609.73;1754463;81;21101;-57
2022/04/09 05:11:46;;;;;;;49.65;30.52;;;;;;;6.65;99.24;95604.61;1752747;81;20992;-57
2022/04/09 05:14:12;;;;;;;56.08;34.55;;;;;;;6.73;99.43;95601.16;1740498;81;21007;-56
2022/04/09 05:16:38;;;;;;;52.53;35.05;;;;;;;6.84;98.46;95607.61;1744693;81;20889;-56
2022/04/09 05:19:04;;;;;;;49.23;30.52;;;;;;;6.91;97.74;95606.02;1764232;79;20876;-56
2022/04/09 05:21:30;;;;;;;45.30;28.75;;;;;;;6.98;98.04;95614.98;1756233;81;21309;-56
2022/04/09 05:23:56;;;;;;;57.43;36.48;;;;;;;7.03;97.54;95608.11;1752345;81;20889;-57
2022/04/09 05:26:22;;;;;;;94.13;72.47;;;;;;;7.07;98.91;95600.97;1752250;81;22559;-57
2022/04/09 05:28:53;;;;;;;107.00;76.77;;;;;;;7.15;97.89;95608.27;1749156;81;20935;-56
2022/04/09 05:31:16;;;;;;;104.27;89.00;;;;;;;7.25;98.22;95606.61;1736944;81;21060;-56
2022/04/09 05:33:42;;;;;;;26.02;21.27;;;;;;;7.40;100.00;95626.11;1743182;81;21383;-56
2022/04/09 05:36:08;;;;;;;17.23;12.60;;;;;;;7.57;99.54;95634.20;1752670;81;20881;-56
2022/04/09 05:38:34;;;;;;;20.65;11.60;;;;;;;7.72;99.14;95665.27;1762451;79;20912;-57
2022/04/09 05:41:00;;;;;;;22.32;12.65;;;;;;;7.92;100.00;95690.23;1752703;81;21258;-57
2022/04/09 05:43:26;;;;;;;26.07;13.28;;;;;;;7.88;99.55;95683.34;1752279;81;21024;-56
2022/04/09 05:45:51;;;;;;;32.30;13.25;;;;;;;7.81;99.04;95683.02;1752594;81;22352;-57
2022/04/09 05:48:17;;;;;;;16.30;11.20;;;;;;;7.64;99.23;95695.95;1752535;81;20932;-57
2022/04/09 05:50:43;;;;;;;20.40;16.05;;;;;;;7.65;98.69;95703.48;1754198;81;20936;-56
2022/04/09 05:53:09;;;;;;;19.42;13.65;;;;;;;7.43;99.37;95702.26;1764656;81;20881;-57
2022/04/09 05:55:35;;;;;;;17.80;13.10;;;;;;;7.38;98.80;95720.73;1752659;81;21023;-57
2022/04/09 05:58:01;;;;;;;17.37;11.70;;;;;;;7.22;99.00;95745.97;1752324;81;21154;-56
2022/04/09 06:00:27;;;;;;;19.25;15.13;;;;;;;6.99;99.55;95769.48;1741405;81;20912;-57
2022/04/09 06:02:53;;;;;;;12.68;10.18;;;;;;;6.92;99.60;95812.24;1743163;79;21039;-56
2022/04/09 06:05:19;;;;;;;11.00;7.80;;;;;;;6.75;100.00;95856.02;1756114;81;20865;-57
2022/04/09 06:07:45;;;;;;;11.78;8.30;;;;;;;6.57;100.00;95873.67;1750672;81;21059;-56
2022/04/09 06:10:13;;;;;;;9.53;7.70;;;;;;;6.44;100.00;95896.30;1738144;82;21252;-56
2022/04/09 06:12:38;;;;;;;10.65;9.60;;;;;;;6.28;100.00;95905.02;1751740;79;21012;-56
2022/04/09 06:15:06;;;;;;;13.53;10.58;;;;;;;6.28;100.00;95918.47;1770307;81;20857;-56
2022/04/09 06:17:33;;;;;;;5.03;3.85;;;;;;;6.02;100.00;95941.87;1742388;81;21483;-57
2022/04/09 06:19:59;;;;;;;9.68;8.33;;;;;;;5.92;99.04;95975.14;1741274;81;21010;-57
2022/04/09 06:22:25;;;;;;;5.22;3.10;;;;;;;5.97;98.77;95996.28;1731904;81;22206;-57
2022/04/09 06:24:51;;;;;;;5.50;4.03;;;;;;;5.63;96.03;96016.23;1752083;81;20853;-57
2022/04/09 06:27:17;;;;;;;4.95;4.17;;;;;;;5.35;95.17;96034.18;1756372;81;20973;-57
2022/04/09 06:29:43;;;;;;;4.05;3.12;;;;;;;5.18;95.55;96042.77;1743385;81;20845;-57
2022/04/09 06:32:09;;;;;;;9.53;6.05;;;;;;;5.00;95.90;96054.33;1747831;81;21702;-56
2022/04/09 06:34:35;;;;;;;5.35;3.95;;;;;;;4.97;96.13;96073.17;1740040;81;21795;-57
2022/04/09 06:37:00;;;;;;;5.22;3.35;;;;;;;4.83;95.45;96088.39;1733707;81;20888;-57
2022/04/09 06:39:27;;;;;;;8.28;2.58;;;;;;;4.73;95.70;96114.03;1759232;79;21843;-57
2022/04/09 06:41:52;;;;;;;4.33;3.15;;;;;;;4.61;95.74;96115.77;1751419;81;21004;-57
2022/04/09 06:44:19;;;;;;;5.00;2.80;;;;;;;4.72;95.98;96123.96;1748957;81;20893;-57
2022/04/09 06:46:46;;;;;;;3.75;3.08;;;;;;;4.74;95.83;96133.06;1752306;81;21833;-56
2022/04/09 06:49:14;;;;;;;2.83;2.30;;;;;;;4.63;95.55;96153.06;1752098;81;21461;-56
2022/04/09 06:51:40;;;;;;;6.17;2.85;;;;;;;4.75;94.45;96167.65;1760380;81;21437;-57
2022/04/09 06:54:06;;;;;;;9.40;5.97;;;;;;;4.62;93.58;96188.48;1755934;81;20861;-56
2022/04/09 06:56:32;;;;;;;5.78;3.40;;;;;;;4.50;93.21;96200.13;1745276;81;21070;-57
2022/04/09 06:58:58;;;;;;;4.72;3.25;;;;;;;4.29;93.35;96222.89;1741109;81;21275;-57
2022/04/09 07:01:25;;;;;;;7.92;3.90;;;;;;;4.30;93.42;96241.91;1745229;81;20865;-57
2022/04/09 07:03:52;;;;;;;4.60;3.10;;;;;;;4.21;94.13;96252.45;1759604;79;21576;-57
2022/04/09 07:06:18;;;;;;;5.67;3.33;;;;;;;4.08;94.51;96259.24;1752420;81;21016;-56
2022/04/09 07:08:44;;;;;;;3.30;2.02;;;;;;;4.06;94.12;96268.11;1750313;81;20908;-56
2022/04/09 07:11:09;;;;;;;6.67;3.02;;;;;;;4.07;93.94;96275.61;1750371;80;21534;-57
2022/04/09 07:13:35;;;;;;;4.03;3.17;;;;;;;4.19;93.70;96278.20;1750166;81;20975;-56
2022/04/09 07:16:01;;;;;;;8.40;4.83;;;;;;;4.21;93.97;96289.44;1750836;81;21339;-56
2022/04/09 07:18:27;;;;;;;5.28;2.22;;;;;;;4.23;94.20;96299.88;1751758;81;20873;-56
2022/04/09 07:20:53;;;;;;;7.87;3.85;;;;;;;4.22;93.62;96310.34;1743403;81;21649;-57
2022/04/09 07:23:19;;;;;;;16.80;9.53;;;;;;;4.19;93.34;96327.80;1731937;81;21672;-56
2022/04/09 07:25:45;;;;;;;13.62;5.45;;;;;;;4.17;93.30;96321.90;1739144;81;20916;-57
2022/04/09 07:28:11;;;;;;;14.03;6.55;;;;;;;4.15;93.39;96322.73;1752277;81;20893;-57
2022/04/09 07:30:37;;;;;;;12.70;6.37;;;;;;;4.23;93.34;96330.17;1751820;81;20901;-57
2022/04/09 07:33:02;;;;;;;19.62;9.75;;;;;;;4.11;93.62;96345.02;1751791;81;20948;-56
2022/04/09 07:35:28;;;;;;;27.85;11.30;;;;;;;4.08;94.02;96353.06;1754726;81;21330;-57
2022/04/09 07:37:55;;;;;;;8.78;5.37;;;;;;;4.11;93.92;96357.89;1763884;81;20904;-57
2022/04/09 07:40:24;;;;;;;9.03;4.87;;;;;;;4.21;93.84;96382.48;1752077;81;33535;-57
2022/04/09 07:42:51;;;;;;;7.17;4.75;;;;;;;4.31;93.20;96397.70;1755072;79;21178;-56
2022/04/09 07:45:17;;;;;;;10.55;4.65;;;;;;;4.37;93.22;96397.94;1755806;81;21063;-57
2022/04/09 07:47:44;;;;;;;8.20;4.78;;;;;;;4.30;92.33;96418.35;1758342;81;21123;-57
2022/04/09 07:50:10;;;;;;;8.63;4.87;;;;;;;4.33;91.83;96427.71;1752270;81;20972;-57
2022/04/09 07:52:39;;;;;;;6.50;3.02;;;;;;;4.37;92.27;96439.50;1752836;81;21004;-57
2022/04/09 07:55:07;;;;;;;7.23;3.37;;;;;;;4.29;91.97;96444.11;1739122;81;21027;-57
2022/04/09 07:57:33;;;;;;;4.00;2.40;;;;;;;4.22;92.81;96449.77;1751628;81;22159;-57
2022/04/09 07:59:59;;;;;;;18.05;7.70;;;;;;;4.11;92.68;96462.98;1764317;81;21375;-57
2022/04/09 08:02:25;;;;;;;22.07;14.20;;;;;;;4.17;93.15;96482.76;1743750;81;21035;-57
2022/04/09 08:04:51;;;;;;;9.78;7.17;;;;;;;4.17;93.15;96482.76;1752170;81;21875;-56
2022/04/09 08:07:17;;;;;;;6.47;5.20;;;;;;;4.10;92.63;96486.30;1752409;81;20893;-57
2022/04/09 08:09:48;;;;;;;6.67;5.40;;;;;;;4.14;93.12;96500.75;1747562;81;20944;-57
2022/04/09 08:12:15;;;;;;;5.10;3.42;;;;;;;4.06;93.30;96519.28;1751021;81;22030;-57
2022/04/09 08:14:44;;;;;;;29.42;21.33;;;;;;;4.11;93.27;96530.00;1752783;79;21013;-56
2022/04/09 08:17:10;;;;;;;30.57;16.67;;;;;;;4.15;93.11;96531.84;1758359;81;21421;-57
2022/04/09 08:19:36;;;;;;;39.15;25.62;;;;;;;4.21;92.58;96533.97;1761248;81;21008;-56
2022/04/09 08:22:03;;;;;;;33.58;23.65;;;;;;;4.20;92.68;96553.28;1739427;80;20979;-57
2022/04/09 08:24:29;;;;;;;15.05;11.28;;;;;;;4.23;92.82;96564.78;1737808;81;22110;-57
2022/04/09 08:26:55;;;;;;;21.97;17.32;;;;;;;4.18;91.96;96566.67;1746179;81;20909;-56
2022/04/09 08:29:21;;;;;;;18.62;14.13;;;;;;;4.21;91.97;96583.03;1742665;81;21570;-57
2022/04/09 08:31:47;;;;;;;12.95;11.25;;;;;;;4.07;92.25;96590.05;1743782;81;20972;-56
2022/04/09 08:34:17;;;;;;;10.82;8.75;;;;;;;4.11;92.08;96594.34;1738810;81;21044;-57
2022/04/09 08:36:44;;;;;;;7.87;5.53;;;;;;;3.93;92.16;96610.44;1745693;81;21161;-56
2022/04/09 08:39:10;;;;;;;9.15;7.45;;;;;;;4.02;91.77;96611.52;1738077;81;21004;-57
2022/04/09 08:41:37;;;;;;;6.92;6.20;;;;;;;3.97;93.19;96604.81;1738556;81;21018;-57
2022/04/09 08:44:03;;;;;;;9.45;7.45;;;;;;;4.02;93.12;96610.72;1737700;81;20993;-56
2022/04/09 08:46:29;;;;;;;8.65;6.22;;;;;;;3.97;93.57;96623.58;1730022;81;21460;-57
2022/04/09 08:48:55;;;;;;;9.00;7.17;;;;;;;3.86;94.37;96646.11;1743300;81;21532;-57
2022/04/09 08:51:21;;;;;;;9.65;7.33;;;;;;;3.88;93.87;96664.86;1755570;81;20931;-57
2022/04/09 08:53:47;;;;;;;10.45;6.62;;;;;;;3.67;94.68;96670.78;1747899;81;20984;-57
2022/04/09 08:56:15;;;;;;;9.73;7.42;;;;;;;3.68;94.63;96671.58;1756436;80;21425;-56
2022/04/09 08:58:41;;;;;;;10.25;7.40;;;;;;;3.63;95.01;96679.61;1736627;82;21016;-57
2022/04/09 09:01:08;;;;;;;9.20;7.92;;;;;;;3.51;95.41;96677.73;1737834;82;21157;-57
2022/04/09 09:03:35;;;;;;;8.38;6.28;;;;;;;3.52;95.86;96686.84;1778214;78;20996;-56
2022/04/09 09:06:01;;;;;;;8.25;6.50;;;;;;;3.47;95.67;96696.20;1741512;82;20962;-55
2022/04/09 09:08:41;;;;;;;7.78;6.15;;;;;;;3.45;95.40;96713.61;1741119;82;21506;-57
2022/04/09 09:11:07;;;;;;;6.42;5.25;;;;;;;3.38;95.96;96718.67;1740636;82;21412;-57
2022/04/09 09:13:48;;;;;;;8.38;6.40;;;;;;;3.36;95.42;96741.44;1737993;81;21514;-56
2022/04/09 09:16:31;;;;;;;5.97;4.37;;;;;;;3.30;94.60;96744.63;1754118;81;21514;-56
2022/04/09 09:19:03;;;;;;;7.08;5.17;;;;;;;3.28;93.78;96766.86;1751810;81;20970;-56
2022/04/09 09:21:29;;;;;;;5.37;4.40;;;;;;;3.42;94.16;96771.70;1758046;81;21064;-57
2022/04/09 09:24:14;;;;;;;5.53;3.90;;;;;;;3.28;92.21;96766.05;1761728;79;20864;-57
2022/04/09 09:26:40;;;;;;;8.20;5.17;;;;;;;3.36;92.65;96784.28;1738244;82;22415;-57
2022/04/09 09:29:09;;;;;;;27.30;15.30;;;;;;;3.50;93.51;96786.72;1759069;79;20991;-57
2022/04/09 09:31:42;;;;;;;16.57;9.88;;;;;;;3.66;93.24;96792.92;1770188;81;21044;-57
2022/04/09 09:34:16;;;;;;;19.92;12.75;;;;;;;3.76;92.40;96796.98;1746260;81;21700;-56
2022/04/09 09:36:43;;;;;;;21.73;14.85;;;;;;;3.86;92.29;96806.91;1740285;81;21453;-57
2022/04/09 09:39:13;;;;;;;21.42;12.43;;;;;;;3.96;92.10;96815.76;1742229;81;21157;-57
2022/04/09 09:41:57;;;;;;;10.40;7.80;;;;;;;4.05;91.77;96814.70;1744685;81;21047;-57
2022/04/09 09:44:30;;;;;;;25.05;20.45;;;;;;;4.11;91.79;96823.02;1755759;81;21055;-56
2022/04/09 09:46:57;;;;;;;15.10;11.90;;;;;;;4.15;91.62;96818.72;1748885;81;20993;-56
2022/04/09 09:49:24;;;;;;;16.32;10.53;;;;;;;4.22;91.58;96821.94;1696942;82;22075;-56
2022/04/09 09:52:09;;;;;;;15.63;10.23;;;;;;;4.31;91.40;96833.48;1748076;81;21193;-56
2022/04/09 09:55:04;;;;;;;9.75;7.30;;;;;;;4.32;90.71;96835.09;1748589;81;20981;-56
2022/04/09 09:57:31;;;;;;;8.05;6.37;;;;;;;4.34;89.64;96829.71;1757965;81;21019;-56
2022/04/09 10:00:01;;;;;;;12.33;7.33;;;;;;;4.52;90.31;96839.09;1747440;81;21001;-57
2022/04/09 10:02:27;;;;;;;13.53;9.68;;;;;;;4.67;90.40;96849.82;1752249;81;21229;-56
2022/04/09 10:04:53;;;;;;;15.10;10.18;;;;;;;4.78;90.21;96843.89;1752331;81;21881;-57
2022/04/09 10:07:20;;;;;;;16.93;11.70;;;;;;;4.94;90.33;96849.51;1752413;81;20874;-56
2022/04/09 10:09:49;;;;;;;12.98;8.85;;;;;;;5.06;90.06;96852.72;1752285;81;21397;-56
2022/04/09 10:12:20;;;;;;;9.95;6.83;;;;;;;5.23;89.89;96843.01;1754397;81;21490;-56
2022/04/09 10:14:59;;;;;;;9.78;5.97;;;;;;;5.32;88.51;96834.64;1761743;81;21404;-56
2022/04/09 10:17:26;;;;;;;15.45;9.93;;;;;;;5.42;88.20;96835.14;1744341;81;21628;-57
2022/04/09 10:19:56;;;;;;;10.38;7.35;;;;;;;5.50;88.19;96845.31;1747979;81;21266;-57
2022/04/09 10:22:32;;;;;;;8.53;6.22;;;;;;;5.62;87.81;96848.48;1731581;81;21004;-57
2022/04/09 10:24:58;;;;;;;13.35;9.03;;;;;;;5.77;86.92;96850.84;1756735;81;21063;-56
2022/04/09 10:27:43;;;;;;;8.08;5.90;;;;;;;5.85;87.31;96851.06;1757762;81;21019;-57
2022/04/09 10:30:21;;;;;;;10.23;6.47;;;;;;;5.98;86.42;96849.66;1768840;81;21134;-57
2022/04/09 10:32:57;;;;;;;9.48;5.25;;;;;;;6.09;86.62;96856.59;1754758;81;21594;-57
2022/04/09 10:35:41;;;;;;;7.90;5.25;;;;;;;6.15;85.53;96864.91;1745611;81;21450;-57
2022/04/09 10:38:13;;;;;;;14.68;8.35;;;;;;;6.16;85.23;96867.86;1740840;81;20996;-57
2022/04/09 10:40:56;;;;;;;11.95;7.28;;;;;;;6.21;84.96;96873.19;1753376;81;21485;-57
2022/04/09 10:43:28;;;;;;;14.47;8.23;;;;;;;6.15;83.65;96864.91;1757035;81;21175;-57
2022/04/09 10:46:08;;;;;;;11.45;7.55;;;;;;;6.19;84.42;96874.02;1752430;81;21418;-57
2022/04/09 10:48:36;;;;;;;13.72;11.90;;;;;;;6.21;84.66;96874.53;1752302;81;21433;-57
2022/04/09 10:51:08;;;;;;;8.65;7.75;;;;;;;6.11;82.69;96877.29;1751837;81;21448;-57
2022/04/09 10:53:36;;;;;;;5.62;4.97;;;;;;;5.87;80.81;96870.94;1748573;81;21414;-57
2022/04/09 10:56:27;;;;;;;11.38;9.50;;;;;;;5.90;82.72;96873.92;1749197;81;21153;-57
2022/04/09 10:59:18;;;;;;;10.28;7.72;;;;;;;5.65;80.60;96865.41;1745932;81;21008;-57
2022/04/09 11:01:50;;;;;;;11.38;8.55;;;;;;;5.55;80.58;96870.00;1752043;81;21079;-57
2022/04/09 11:04:36;;;;;;;11.45;10.30;;;;;;;5.52;81.62;96894.75;1751343;81;20973;-57
2022/04/09 11:07:17;;;;;;;9.63;7.05;;;;;;;5.61;81.58;96888.53;1752282;81;21003;-57
2022/04/09 11:10:04;;;;;;;10.45;7.95;;;;;;;5.55;81.18;96907.63;1756163;79;21387;-57
2022/04/09 11:12:42;;;;;;;10.63;8.58;;;;;;;5.64;81.67;96924.82;1752598;79;21059;-57
2022/04/09 11:15:10;;;;;;;14.23;10.23;;;;;;;5.67;81.70;96916.20;1769711;81;22058;-57
2022/04/09 11:17:39;;;;;;;17.57;10.40;;;;;;;5.75;82.03;96921.55;1742153;81;21015;-57
2022/04/09 11:20:17;;;;;;;13.40;9.68;;;;;;;5.83;81.17;96934.42;1742859;81;21546;-57
2022/04/09 11:22:53;;;;;;;14.25;10.05;;;;;;;5.89;81.47;96935.45;1734401;81;21894;-57
2022/04/09 11:25:24;;;;;;;15.38;10.82;;;;;;;6.01;81.91;96946.47;1748383;81;20980;-57
2022/04/09 11:27:51;;;;;;;17.23;11.65;;;;;;;6.01;80.92;96954.00;1749086;81;21186;-57
2022/04/09 11:30:17;;;;;;;24.07;12.65;;;;;;;5.96;80.90;96958.05;1742205;81;21007;-57
2022/04/09 11:32:48;;;;;;;38.15;20.25;;;;;;;5.89;81.29;96960.98;1738150;81;22118;-57